sensor_id;sensor_type;location;lat;lon;timestamp;P1;durP1;ratioP1;P2;durP2;ratioP2
27383;SDS011;14851;51.166;4.760;2022-09-23T00:01:18;13.15;;;7.60;;
27383;SDS011;14851;51.166;4.760;2022-09-23T00:03:44;9.20;;;7.30;;
27383;SDS011;14851;51.166;4.760;2022-09-23T00:06:12;10.50;;;7.63;;
27383;SDS011;14851;51.166;4.760;2022-09-23T00:08:42;12.35;;;8.13;;
27383;SDS011;14851;51.166;4.760;2022-09-23T00:13:43;12.60;;;8.77;;
27383;SDS011;14851;51.166;4.760;2022-09-23T00:16:13;11.85;;;8.07;;
27383;SDS011;14851;51.166;4.760;2022-09-23T00:18:40;12.90;;;8.02;;
27383;SDS011;14851;51.166;4.760;2022-09-23T00:21:10;12.27;;;8.80;;
27383;SDS011;14851;51.166;4.760;2022-09-23T00:23:38;10.57;;;9.27;;
27383;SDS011;14851;51.166;4.760;2022-09-23T00:26:08;10.90;;;8.05;;
27383;SDS011;14851;51.166;4.760;2022-09-23T00:28:43;10.43;;;8.55;;
27383;SDS011;14851;51.166;4.760;2022-09-23T00:31:12;11.90;;;9.40;;
27383;SDS011;14851;51.166;4.760;2022-09-23T00:33:42;13.18;;;10.02;;
27383;SDS011;14851;51.166;4.760;2022-09-23T00:36:09;12.40;;;9.65;;
27383;SDS011;14851;51.166;4.760;2022-09-23T00:38:40;15.18;;;9.48;;
27383;SDS011;14851;51.166;4.760;2022-09-23T00:41:09;11.73;;;9.05;;
27383;SDS011;14851;51.166;4.760;2022-09-23T00:46:06;14.93;;;9.80;;
27383;SDS011;14851;51.166;4.760;2022-09-23T00:48:36;13.80;;;9.63;;
27383;SDS011;14851;51.166;4.760;2022-09-23T00:51:05;15.52;;;10.05;;
27383;SDS011;14851;51.166;4.760;2022-09-23T00:53:34;13.65;;;9.40;;
27383;SDS011;14851;51.166;4.760;2022-09-23T00:56:01;13.02;;;10.85;;
27383;SDS011;14851;51.166;4.760;2022-09-23T00:58:31;11.38;;;10.13;;
27383;SDS011;14851;51.166;4.760;2022-09-23T01:01:00;13.40;;;10.25;;
27383;SDS011;14851;51.166;4.760;2022-09-23T01:03:30;12.32;;;10.05;;
27383;SDS011;14851;51.166;4.760;2022-09-23T01:05:57;15.40;;;11.02;;
27383;SDS011;14851;51.166;4.760;2022-09-23T01:08:24;15.13;;;10.43;;
27383;SDS011;14851;51.166;4.760;2022-09-23T01:25:16;19.63;;;10.30;;
27383;SDS011;14851;51.166;4.760;2022-09-23T01:30:57;15.98;;;10.80;;
27383;SDS011;14851;51.166;4.760;2022-09-23T01:33:51;13.25;;;10.75;;
27383;SDS011;14851;51.166;4.760;2022-09-23T01:36:34;15.85;;;10.82;;
27383;SDS011;14851;51.166;4.760;2022-09-23T01:39:10;12.85;;;10.23;;
27383;SDS011;14851;51.166;4.760;2022-09-23T01:41:51;15.07;;;11.13;;
27383;SDS011;14851;51.166;4.760;2022-09-23T01:47:13;11.65;;;10.15;;
27383;SDS011;14851;51.166;4.760;2022-09-23T01:49:52;14.07;;;11.13;;
27383;SDS011;14851;51.166;4.760;2022-09-23T01:52:53;12.00;;;10.45;;
27383;SDS011;14851;51.166;4.760;2022-09-23T01:55:25;14.27;;;11.10;;
27383;SDS011;14851;51.166;4.760;2022-09-23T01:58:03;14.95;;;11.85;;
27383;SDS011;14851;51.166;4.760;2022-09-23T02:00:35;16.15;;;11.25;;
27383;SDS011;14851;51.166;4.760;2022-09-23T02:03:52;14.15;;;11.90;;
27383;SDS011;14851;51.166;4.760;2022-09-23T02:06:14;15.52;;;12.10;;
27383;SDS011;14851;51.166;4.760;2022-09-23T02:08:49;15.13;;;11.52;;
27383;SDS011;14851;51.166;4.760;2022-09-23T02:11:21;18.95;;;12.68;;
27383;SDS011;14851;51.166;4.760;2022-09-23T02:13:58;15.23;;;11.75;;
27383;SDS011;14851;51.166;4.760;2022-09-23T02:16:33;15.63;;;11.90;;
27383;SDS011;14851;51.166;4.760;2022-09-23T02:19:05;16.45;;;12.05;;
27383;SDS011;14851;51.166;4.760;2022-09-23T02:21:42;19.20;;;13.02;;
27383;SDS011;14851;51.166;4.760;2022-09-23T02:24:16;16.65;;;12.40;;
27383;SDS011;14851;51.166;4.760;2022-09-23T02:26:51;15.13;;;11.93;;
27383;SDS011;14851;51.166;4.760;2022-09-23T02:29:24;15.23;;;12.38;;
27383;SDS011;14851;51.166;4.760;2022-09-23T02:35:15;12.32;;;10.90;;
27383;SDS011;14851;51.166;4.760;2022-09-23T02:43:10;15.88;;;13.05;;
27383;SDS011;14851;51.166;4.760;2022-09-23T02:45:57;16.83;;;12.65;;
27383;SDS011;14851;51.166;4.760;2022-09-23T02:51:21;18.70;;;12.32;;
27383;SDS011;14851;51.166;4.760;2022-09-23T02:53:54;18.38;;;12.80;;
27383;SDS011;14851;51.166;4.760;2022-09-23T02:56:21;16.60;;;12.52;;
27383;SDS011;14851;51.166;4.760;2022-09-23T02:58:51;14.25;;;11.77;;
27383;SDS011;14851;51.166;4.760;2022-09-23T03:06:55;16.75;;;12.57;;
27383;SDS011;14851;51.166;4.760;2022-09-23T03:09:30;14.73;;;12.18;;
27383;SDS011;14851;51.166;4.760;2022-09-23T03:17:48;12.57;;;11.20;;
27383;SDS011;14851;51.166;4.760;2022-09-23T03:23:26;14.95;;;11.93;;
27383;SDS011;14851;51.166;4.760;2022-09-23T03:25:58;14.70;;;12.10;;
27383;SDS011;14851;51.166;4.760;2022-09-23T03:28:36;15.15;;;11.15;;
27383;SDS011;14851;51.166;4.760;2022-09-23T03:31:06;16.23;;;12.02;;
27383;SDS011;14851;51.166;4.760;2022-09-23T03:33:32;14.98;;;11.73;;
27383;SDS011;14851;51.166;4.760;2022-09-23T03:36:05;20.52;;;13.07;;
27383;SDS011;14851;51.166;4.760;2022-09-23T03:38:53;18.52;;;13.02;;
27383;SDS011;14851;51.166;4.760;2022-09-23T03:41:36;16.45;;;12.73;;
27383;SDS011;14851;51.166;4.760;2022-09-23T03:44:08;15.85;;;14.15;;
27383;SDS011;14851;51.166;4.760;2022-09-23T03:46:36;16.92;;;15.00;;
27383;SDS011;14851;51.166;4.760;2022-09-23T03:49:13;15.27;;;13.70;;
27383;SDS011;14851;51.166;4.760;2022-09-23T03:51:48;17.45;;;14.23;;
27383;SDS011;14851;51.166;4.760;2022-09-23T03:54:20;15.52;;;13.77;;
27383;SDS011;14851;51.166;4.760;2022-09-23T03:56:49;15.77;;;13.25;;
27383;SDS011;14851;51.166;4.760;2022-09-23T03:59:17;16.13;;;14.32;;
27383;SDS011;14851;51.166;4.760;2022-09-23T04:01:42;18.88;;;14.38;;
27383;SDS011;14851;51.166;4.760;2022-09-23T04:04:10;17.05;;;14.80;;
27383;SDS011;14851;51.166;4.760;2022-09-23T04:06:35;16.08;;;14.45;;
27383;SDS011;14851;51.166;4.760;2022-09-23T04:09:02;15.88;;;13.85;;
27383;SDS011;14851;51.166;4.760;2022-09-23T04:11:29;18.40;;;14.10;;
27383;SDS011;14851;51.166;4.760;2022-09-23T04:13:56;17.80;;;14.20;;
27383;SDS011;14851;51.166;4.760;2022-09-23T04:16:23;18.63;;;14.55;;
27383;SDS011;14851;51.166;4.760;2022-09-23T04:18:50;15.90;;;13.63;;
27383;SDS011;14851;51.166;4.760;2022-09-23T04:21:16;15.75;;;13.70;;
27383;SDS011;14851;51.166;4.760;2022-09-23T04:23:46;15.70;;;13.05;;
27383;SDS011;14851;51.166;4.760;2022-09-23T04:26:14;17.98;;;14.30;;
27383;SDS011;14851;51.166;4.760;2022-09-23T04:28:40;15.80;;;13.27;;
27383;SDS011;14851;51.166;4.760;2022-09-23T04:31:07;17.33;;;14.50;;
27383;SDS011;14851;51.166;4.760;2022-09-23T04:33:34;15.15;;;13.60;;
27383;SDS011;14851;51.166;4.760;2022-09-23T04:36:01;15.70;;;14.00;;
27383;SDS011;14851;51.166;4.760;2022-09-23T04:38:33;18.05;;;13.73;;
27383;SDS011;14851;51.166;4.760;2022-09-23T04:40:59;18.48;;;14.43;;
27383;SDS011;14851;51.166;4.760;2022-09-23T04:43:26;18.30;;;14.82;;
27383;SDS011;14851;51.166;4.760;2022-09-23T04:46:03;18.85;;;15.07;;
27383;SDS011;14851;51.166;4.760;2022-09-23T04:48:30;15.95;;;14.35;;
27383;SDS011;14851;51.166;4.760;2022-09-23T04:51:03;15.48;;;13.85;;
27383;SDS011;14851;51.166;4.760;2022-09-23T04:53:41;21.75;;;15.60;;
27383;SDS011;14851;51.166;4.760;2022-09-23T04:56:10;16.65;;;14.60;;
27383;SDS011;14851;51.166;4.760;2022-09-23T04:58:53;19.67;;;14.98;;
27383;SDS011;14851;51.166;4.760;2022-09-23T05:01:26;17.30;;;14.45;;
27383;SDS011;14851;51.166;4.760;2022-09-23T05:03:59;16.33;;;14.50;;
27383;SDS011;14851;51.166;4.760;2022-09-23T05:06:30;19.80;;;14.65;;
27383;SDS011;14851;51.166;4.760;2022-09-23T05:08:59;19.33;;;15.45;;
27383;SDS011;14851;51.166;4.760;2022-09-23T05:11:25;18.60;;;15.60;;
27383;SDS011;14851;51.166;4.760;2022-09-23T05:13:53;21.45;;;15.50;;
27383;SDS011;14851;51.166;4.760;2022-09-23T05:16:19;20.55;;;15.35;;
27383;SDS011;14851;51.166;4.760;2022-09-23T05:18:47;19.38;;;15.55;;
27383;SDS011;14851;51.166;4.760;2022-09-23T05:21:16;18.88;;;15.52;;
27383;SDS011;14851;51.166;4.760;2022-09-23T05:23:47;17.65;;;15.48;;
27383;SDS011;14851;51.166;4.760;2022-09-23T05:26:15;17.08;;;14.77;;
27383;SDS011;14851;51.166;4.760;2022-09-23T05:28:41;19.65;;;15.23;;
27383;SDS011;14851;51.166;4.760;2022-09-23T05:31:08;19.25;;;15.40;;
27383;SDS011;14851;51.166;4.760;2022-09-23T05:33:41;19.77;;;14.75;;
27383;SDS011;14851;51.166;4.760;2022-09-23T05:36:10;19.57;;;15.13;;
27383;SDS011;14851;51.166;4.760;2022-09-23T05:38:36;16.20;;;14.43;;
27383;SDS011;14851;51.166;4.760;2022-09-23T05:41:04;20.67;;;15.93;;
27383;SDS011;14851;51.166;4.760;2022-09-23T05:43:33;20.00;;;14.98;;
27383;SDS011;14851;51.166;4.760;2022-09-23T05:48:39;16.35;;;13.98;;
27383;SDS011;14851;51.166;4.760;2022-09-23T05:51:07;17.75;;;14.50;;
27383;SDS011;14851;51.166;4.760;2022-09-23T05:53:38;19.05;;;15.75;;
27383;SDS011;14851;51.166;4.760;2022-09-23T05:56:06;18.75;;;15.25;;
27383;SDS011;14851;51.166;4.760;2022-09-23T05:58:34;18.25;;;14.70;;
27383;SDS011;14851;51.166;4.760;2022-09-23T06:01:00;19.63;;;15.32;;
27383;SDS011;14851;51.166;4.760;2022-09-23T06:03:36;21.30;;;14.82;;
27383;SDS011;14851;51.166;4.760;2022-09-23T06:06:02;19.58;;;14.90;;
27383;SDS011;14851;51.166;4.760;2022-09-23T06:08:31;17.50;;;15.50;;
27383;SDS011;14851;51.166;4.760;2022-09-23T06:11:04;19.08;;;14.88;;
27383;SDS011;14851;51.166;4.760;2022-09-23T06:13:35;17.42;;;15.43;;
27383;SDS011;14851;51.166;4.760;2022-09-23T06:16:10;19.35;;;14.70;;
27383;SDS011;14851;51.166;4.760;2022-09-23T06:18:38;18.02;;;14.75;;
27383;SDS011;14851;51.166;4.760;2022-09-23T06:21:12;21.40;;;16.25;;
27383;SDS011;14851;51.166;4.760;2022-09-23T06:23:41;15.52;;;13.48;;
27383;SDS011;14851;51.166;4.760;2022-09-23T06:26:09;16.58;;;12.57;;
27383;SDS011;14851;51.166;4.760;2022-09-23T06:28:42;17.45;;;14.63;;
27383;SDS011;14851;51.166;4.760;2022-09-23T06:31:12;18.90;;;15.23;;
27383;SDS011;14851;51.166;4.760;2022-09-23T06:33:40;18.02;;;15.00;;
27383;SDS011;14851;51.166;4.760;2022-09-23T06:36:07;16.55;;;14.82;;
27383;SDS011;14851;51.166;4.760;2022-09-23T06:38:37;16.13;;;14.50;;
27383;SDS011;14851;51.166;4.760;2022-09-23T06:41:04;15.27;;;12.82;;
27383;SDS011;14851;51.166;4.760;2022-09-23T06:43:30;19.10;;;16.00;;
27383;SDS011;14851;51.166;4.760;2022-09-23T06:45:59;24.00;;;16.25;;
27383;SDS011;14851;51.166;4.760;2022-09-23T06:48:28;21.65;;;16.23;;
27383;SDS011;14851;51.166;4.760;2022-09-23T06:50:57;31.42;;;17.83;;
27383;SDS011;14851;51.166;4.760;2022-09-23T06:53:26;29.27;;;17.33;;
27383;SDS011;14851;51.166;4.760;2022-09-23T06:56:10;30.95;;;16.35;;
27383;SDS011;14851;51.166;4.760;2022-09-23T06:58:39;23.77;;;15.57;;
27383;SDS011;14851;51.166;4.760;2022-09-23T07:01:07;22.05;;;14.80;;
27383;SDS011;14851;51.166;4.760;2022-09-23T07:03:37;15.77;;;12.90;;
27383;SDS011;14851;51.166;4.760;2022-09-23T07:06:04;18.73;;;13.35;;
27383;SDS011;14851;51.166;4.760;2022-09-23T07:08:32;18.45;;;13.43;;
27383;SDS011;14851;51.166;4.760;2022-09-23T07:11:02;18.90;;;13.52;;
27383;SDS011;14851;51.166;4.760;2022-09-23T07:13:33;17.02;;;13.60;;
27383;SDS011;14851;51.166;4.760;2022-09-23T07:16:01;16.48;;;13.57;;
27383;SDS011;14851;51.166;4.760;2022-09-23T07:18:29;16.98;;;13.77;;
27383;SDS011;14851;51.166;4.760;2022-09-23T07:23:40;17.80;;;13.55;;
27383;SDS011;14851;51.166;4.760;2022-09-23T07:26:07;17.35;;;12.00;;
27383;SDS011;14851;51.166;4.760;2022-09-23T07:28:34;20.05;;;12.77;;
27383;SDS011;14851;51.166;4.760;2022-09-23T07:31:02;17.10;;;12.57;;
27383;SDS011;14851;51.166;4.760;2022-09-23T07:33:34;15.82;;;11.88;;
27383;SDS011;14851;51.166;4.760;2022-09-23T07:36:05;16.40;;;11.15;;
27383;SDS011;14851;51.166;4.760;2022-09-23T07:38:35;18.48;;;11.52;;
27383;SDS011;14851;51.166;4.760;2022-09-23T07:41:03;16.33;;;11.23;;
27383;SDS011;14851;51.166;4.760;2022-09-23T07:43:36;14.82;;;10.63;;
27383;SDS011;14851;51.166;4.760;2022-09-23T07:46:07;17.10;;;11.48;;
27383;SDS011;14851;51.166;4.760;2022-09-23T07:48:41;18.33;;;11.98;;
27383;SDS011;14851;51.166;4.760;2022-09-23T07:51:09;17.10;;;11.07;;
27383;SDS011;14851;51.166;4.760;2022-09-23T07:53:47;15.57;;;10.07;;
27383;SDS011;14851;51.166;4.760;2022-09-23T07:56:15;14.43;;;9.77;;
27383;SDS011;14851;51.166;4.760;2022-09-23T07:58:47;12.82;;;9.73;;
27383;SDS011;14851;51.166;4.760;2022-09-23T08:01:31;15.33;;;9.83;;
27383;SDS011;14851;51.166;4.760;2022-09-23T08:04:00;18.45;;;11.00;;
27383;SDS011;14851;51.166;4.760;2022-09-23T08:06:37;15.13;;;10.43;;
27383;SDS011;14851;51.166;4.760;2022-09-23T08:09:05;20.40;;;10.32;;
27383;SDS011;14851;51.166;4.760;2022-09-23T08:11:35;15.40;;;9.55;;
27383;SDS011;14851;51.166;4.760;2022-09-23T08:14:04;14.07;;;9.55;;
27383;SDS011;14851;51.166;4.760;2022-09-23T08:16:31;15.10;;;9.55;;
27383;SDS011;14851;51.166;4.760;2022-09-23T08:19:02;12.77;;;9.38;;
27383;SDS011;14851;51.166;4.760;2022-09-23T08:21:28;13.32;;;10.07;;
27383;SDS011;14851;51.166;4.760;2022-09-23T08:23:55;15.10;;;9.55;;
27383;SDS011;14851;51.166;4.760;2022-09-23T08:26:24;14.48;;;9.23;;
27383;SDS011;14851;51.166;4.760;2022-09-23T08:28:51;13.07;;;9.25;;
27383;SDS011;14851;51.166;4.760;2022-09-23T08:31:20;15.60;;;8.32;;
27383;SDS011;14851;51.166;4.760;2022-09-23T08:33:52;13.30;;;8.93;;
27383;SDS011;14851;51.166;4.760;2022-09-23T08:36:22;13.43;;;8.35;;
27383;SDS011;14851;51.166;4.760;2022-09-23T08:38:53;13.90;;;8.77;;
27383;SDS011;14851;51.166;4.760;2022-09-23T08:41:35;13.52;;;9.13;;
27383;SDS011;14851;51.166;4.760;2022-09-23T08:44:41;14.88;;;8.93;;
27383;SDS011;14851;51.166;4.760;2022-09-23T08:52:31;14.40;;;7.97;;
27383;SDS011;14851;51.166;4.760;2022-09-23T08:55:11;14.90;;;8.70;;
27383;SDS011;14851;51.166;4.760;2022-09-23T09:00:18;17.27;;;8.52;;
27383;SDS011;14851;51.166;4.760;2022-09-23T09:02:47;14.25;;;8.57;;
27383;SDS011;14851;51.166;4.760;2022-09-23T09:05:16;13.48;;;8.68;;
27383;SDS011;14851;51.166;4.760;2022-09-23T09:07:53;13.07;;;7.85;;
27383;SDS011;14851;51.166;4.760;2022-09-23T09:10:28;13.00;;;8.05;;
27383;SDS011;14851;51.166;4.760;2022-09-23T09:13:10;13.65;;;7.72;;
27383;SDS011;14851;51.166;4.760;2022-09-23T09:19:20;14.52;;;7.97;;
27383;SDS011;14851;51.166;4.760;2022-09-23T09:21:59;14.70;;;7.82;;
27383;SDS011;14851;51.166;4.760;2022-09-23T09:27:00;13.93;;;7.93;;
27383;SDS011;14851;51.166;4.760;2022-09-23T09:29:37;17.65;;;8.27;;
27383;SDS011;14851;51.166;4.760;2022-09-23T09:32:11;15.32;;;8.18;;
27383;SDS011;14851;51.166;4.760;2022-09-23T09:34:46;13.07;;;8.00;;
27383;SDS011;14851;51.166;4.760;2022-09-23T09:37:32;14.45;;;7.38;;
27383;SDS011;14851;51.166;4.760;2022-09-23T09:40:04;16.48;;;9.02;;
27383;SDS011;14851;51.166;4.760;2022-09-23T09:42:36;12.90;;;7.75;;
27383;SDS011;14851;51.166;4.760;2022-09-23T09:50:41;13.35;;;7.43;;
27383;SDS011;14851;51.166;4.760;2022-09-23T09:58:31;16.52;;;7.20;;
27383;SDS011;14851;51.166;4.760;2022-09-23T10:01:16;12.45;;;6.32;;
27383;SDS011;14851;51.166;4.760;2022-09-23T10:03:45;14.10;;;7.22;;
27383;SDS011;14851;51.166;4.760;2022-09-23T10:06:15;15.60;;;7.13;;
27383;SDS011;14851;51.166;4.760;2022-09-23T10:08:47;15.45;;;7.00;;
27383;SDS011;14851;51.166;4.760;2022-09-23T10:11:28;16.35;;;7.20;;
27383;SDS011;14851;51.166;4.760;2022-09-23T10:16:27;13.20;;;6.65;;
27383;SDS011;14851;51.166;4.760;2022-09-23T10:18:57;11.35;;;6.82;;
27383;SDS011;14851;51.166;4.760;2022-09-23T10:21:24;11.18;;;6.72;;
27383;SDS011;14851;51.166;4.760;2022-09-23T10:24:01;16.08;;;7.32;;
27383;SDS011;14851;51.166;4.760;2022-09-23T10:29:19;11.68;;;6.85;;
27383;SDS011;14851;51.166;4.760;2022-09-23T10:35:10;17.05;;;7.47;;
27383;SDS011;14851;51.166;4.760;2022-09-23T10:40:21;13.52;;;6.38;;
27383;SDS011;14851;51.166;4.760;2022-09-23T10:46:46;17.58;;;7.65;;
27383;SDS011;14851;51.166;4.760;2022-09-23T10:54:57;11.75;;;6.10;;
27383;SDS011;14851;51.166;4.760;2022-09-23T11:05:37;16.60;;;6.70;;
27383;SDS011;14851;51.166;4.760;2022-09-23T11:10:51;15.93;;;6.57;;
27383;SDS011;14851;51.166;4.760;2022-09-23T11:16:22;12.88;;;6.85;;
27383;SDS011;14851;51.166;4.760;2022-09-23T11:19:40;12.77;;;6.85;;
27383;SDS011;14851;51.166;4.760;2022-09-23T11:31:14;19.27;;;6.75;;
27383;SDS011;14851;51.166;4.760;2022-09-23T11:36:40;14.23;;;6.80;;
27383;SDS011;14851;51.166;4.760;2022-09-23T11:39:16;14.82;;;6.40;;
27383;SDS011;14851;51.166;4.760;2022-09-23T11:41:51;13.85;;;6.13;;
27383;SDS011;14851;51.166;4.760;2022-09-23T11:46:57;11.70;;;5.45;;
27383;SDS011;14851;51.166;4.760;2022-09-23T11:49:40;20.33;;;5.68;;
27383;SDS011;14851;51.166;4.760;2022-09-23T11:58:07;11.27;;;4.80;;
27383;SDS011;14851;51.166;4.760;2022-09-23T12:00:38;11.43;;;4.85;;
27383;SDS011;14851;51.166;4.760;2022-09-23T12:03:19;8.20;;;4.05;;
27383;SDS011;14851;51.166;4.760;2022-09-23T12:05:49;9.15;;;4.32;;
27383;SDS011;14851;51.166;4.760;2022-09-23T12:08:33;9.60;;;4.30;;
27383;SDS011;14851;51.166;4.760;2022-09-23T12:19:13;9.05;;;4.13;;
27383;SDS011;14851;51.166;4.760;2022-09-23T12:27:33;9.15;;;4.10;;
27383;SDS011;14851;51.166;4.760;2022-09-23T12:30:14;9.13;;;4.15;;
27383;SDS011;14851;51.166;4.760;2022-09-23T12:32:50;7.25;;;3.85;;
27383;SDS011;14851;51.166;4.760;2022-09-23T12:35:19;8.57;;;4.15;;
27383;SDS011;14851;51.166;4.760;2022-09-23T12:37:49;11.30;;;5.05;;
27383;SDS011;14851;51.166;4.760;2022-09-23T12:40:36;8.10;;;5.22;;
27383;SDS011;14851;51.166;4.760;2022-09-23T12:51:27;5.28;;;3.20;;
27383;SDS011;14851;51.166;4.760;2022-09-23T13:01:49;10.75;;;3.55;;
27383;SDS011;14851;51.166;4.760;2022-09-23T13:04:26;7.45;;;3.60;;
27383;SDS011;14851;51.166;4.760;2022-09-23T13:07:26;6.73;;;3.43;;
27383;SDS011;14851;51.166;4.760;2022-09-23T13:10:07;4.82;;;3.22;;
27383;SDS011;14851;51.166;4.760;2022-09-23T13:12:42;4.43;;;3.25;;
27383;SDS011;14851;51.166;4.760;2022-09-23T13:15:14;6.95;;;3.42;;
27383;SDS011;14851;51.166;4.760;2022-09-23T13:17:47;6.50;;;3.90;;
27383;SDS011;14851;51.166;4.760;2022-09-23T13:25:23;7.95;;;4.18;;
27383;SDS011;14851;51.166;4.760;2022-09-23T13:27:56;10.40;;;3.40;;
27383;SDS011;14851;51.166;4.760;2022-09-23T13:30:28;5.95;;;3.47;;
27383;SDS011;14851;51.166;4.760;2022-09-23T13:33:05;7.72;;;3.83;;
27383;SDS011;14851;51.166;4.760;2022-09-23T13:35:41;7.43;;;4.13;;
27383;SDS011;14851;51.166;4.760;2022-09-23T13:38:17;8.60;;;3.58;;
27383;SDS011;14851;51.166;4.760;2022-09-23T13:40:55;7.75;;;3.78;;
27383;SDS011;14851;51.166;4.760;2022-09-23T13:43:36;11.00;;;3.58;;
27383;SDS011;14851;51.166;4.760;2022-09-23T13:46:11;7.78;;;4.00;;
27383;SDS011;14851;51.166;4.760;2022-09-23T13:48:42;6.18;;;3.40;;
27383;SDS011;14851;51.166;4.760;2022-09-23T13:51:15;5.32;;;3.30;;
27383;SDS011;14851;51.166;4.760;2022-09-23T13:53:51;15.48;;;3.97;;
27383;SDS011;14851;51.166;4.760;2022-09-23T13:56:20;7.53;;;3.70;;
27383;SDS011;14851;51.166;4.760;2022-09-23T13:58:47;4.88;;;3.00;;
27383;SDS011;14851;51.166;4.760;2022-09-23T14:01:50;8.13;;;3.58;;
27383;SDS011;14851;51.166;4.760;2022-09-23T14:04:21;8.85;;;3.60;;
27383;SDS011;14851;51.166;4.760;2022-09-23T14:06:49;8.43;;;3.70;;
27383;SDS011;14851;51.166;4.760;2022-09-23T14:09:16;11.00;;;3.67;;
27383;SDS011;14851;51.166;4.760;2022-09-23T14:11:46;5.13;;;3.20;;
27383;SDS011;14851;51.166;4.760;2022-09-23T14:14:15;9.13;;;3.22;;
27383;SDS011;14851;51.166;4.760;2022-09-23T14:16:42;10.45;;;5.90;;
27383;SDS011;14851;51.166;4.760;2022-09-23T14:19:12;7.57;;;3.85;;
27383;SDS011;14851;51.166;4.760;2022-09-23T14:21:47;8.73;;;4.22;;
27383;SDS011;14851;51.166;4.760;2022-09-23T14:24:16;11.55;;;5.72;;
27383;SDS011;14851;51.166;4.760;2022-09-23T14:27:03;10.93;;;6.10;;
27383;SDS011;14851;51.166;4.760;2022-09-23T14:29:43;8.20;;;3.53;;
27383;SDS011;14851;51.166;4.760;2022-09-23T14:32:23;5.78;;;3.78;;
27383;SDS011;14851;51.166;4.760;2022-09-23T14:45:25;9.65;;;2.95;;
27383;SDS011;14851;51.166;4.760;2022-09-23T14:47:59;10.75;;;2.75;;
27383;SDS011;14851;51.166;4.760;2022-09-23T14:50:29;5.72;;;2.92;;
27383;SDS011;14851;51.166;4.760;2022-09-23T14:55:51;7.35;;;3.63;;
27383;SDS011;14851;51.166;4.760;2022-09-23T15:01:23;6.30;;;3.53;;
27383;SDS011;14851;51.166;4.760;2022-09-23T15:03:55;10.30;;;3.70;;
27383;SDS011;14851;51.166;4.760;2022-09-23T15:06:39;7.45;;;3.03;;
27383;SDS011;14851;51.166;4.760;2022-09-23T15:09:15;8.68;;;4.95;;
27383;SDS011;14851;51.166;4.760;2022-09-23T15:11:45;7.75;;;4.10;;
27383;SDS011;14851;51.166;4.760;2022-09-23T15:14:11;7.57;;;4.20;;
27383;SDS011;14851;51.166;4.760;2022-09-23T15:16:41;6.90;;;4.63;;
27383;SDS011;14851;51.166;4.760;2022-09-23T15:19:10;9.32;;;6.50;;
27383;SDS011;14851;51.166;4.760;2022-09-23T15:21:41;10.30;;;8.13;;
27383;SDS011;14851;51.166;4.760;2022-09-23T15:27:18;14.23;;;8.48;;
27383;SDS011;14851;51.166;4.760;2022-09-23T15:29:51;10.73;;;6.07;;
27383;SDS011;14851;51.166;4.760;2022-09-23T15:32:18;9.77;;;5.55;;
27383;SDS011;14851;51.166;4.760;2022-09-23T15:34:47;12.35;;;6.25;;
27383;SDS011;14851;51.166;4.760;2022-09-23T15:37:14;11.25;;;5.53;;
27383;SDS011;14851;51.166;4.760;2022-09-23T15:39:41;8.27;;;4.70;;
27383;SDS011;14851;51.166;4.760;2022-09-23T15:42:08;7.00;;;4.50;;
27383;SDS011;14851;51.166;4.760;2022-09-23T15:44:34;8.27;;;4.50;;
27383;SDS011;14851;51.166;4.760;2022-09-23T15:47:05;11.15;;;4.43;;
27383;SDS011;14851;51.166;4.760;2022-09-23T15:49:39;9.98;;;5.90;;
27383;SDS011;14851;51.166;4.760;2022-09-23T15:52:06;8.88;;;5.18;;
27383;SDS011;14851;51.166;4.760;2022-09-23T15:54:37;10.35;;;6.15;;
27383;SDS011;14851;51.166;4.760;2022-09-23T15:57:03;7.80;;;5.82;;
27383;SDS011;14851;51.166;4.760;2022-09-23T15:59:29;9.10;;;5.50;;
27383;SDS011;14851;51.166;4.760;2022-09-23T16:01:55;14.27;;;5.72;;
27383;SDS011;14851;51.166;4.760;2022-09-23T16:06:52;17.00;;;10.32;;
27383;SDS011;14851;51.166;4.760;2022-09-23T16:09:22;16.42;;;10.55;;
27383;SDS011;14851;51.166;4.760;2022-09-23T16:11:50;15.85;;;9.40;;
27383;SDS011;14851;51.166;4.760;2022-09-23T16:14:17;11.52;;;7.18;;
27383;SDS011;14851;51.166;4.760;2022-09-23T16:16:45;15.48;;;5.60;;
27383;SDS011;14851;51.166;4.760;2022-09-23T16:19:14;8.32;;;5.68;;
27383;SDS011;14851;51.166;4.760;2022-09-23T16:21:41;8.68;;;7.63;;
27383;SDS011;14851;51.166;4.760;2022-09-23T16:24:15;13.20;;;6.35;;
27383;SDS011;14851;51.166;4.760;2022-09-23T16:26:44;11.02;;;6.75;;
27383;SDS011;14851;51.166;4.760;2022-09-23T16:29:13;10.48;;;6.30;;
27383;SDS011;14851;51.166;4.760;2022-09-23T16:31:39;11.18;;;6.82;;
27383;SDS011;14851;51.166;4.760;2022-09-23T16:34:05;10.57;;;7.38;;
27383;SDS011;14851;51.166;4.760;2022-09-23T16:36:32;11.07;;;8.35;;
27383;SDS011;14851;51.166;4.760;2022-09-23T16:39:06;14.98;;;9.82;;
27383;SDS011;14851;51.166;4.760;2022-09-23T16:41:34;17.92;;;11.50;;
27383;SDS011;14851;51.166;4.760;2022-09-23T16:44:01;15.65;;;10.65;;
27383;SDS011;14851;51.166;4.760;2022-09-23T16:46:30;12.50;;;8.90;;
27383;SDS011;14851;51.166;4.760;2022-09-23T16:48:58;15.23;;;9.65;;
27383;SDS011;14851;51.166;4.760;2022-09-23T16:51:26;15.98;;;8.05;;
27383;SDS011;14851;51.166;4.760;2022-09-23T16:53:54;10.57;;;7.53;;
27383;SDS011;14851;51.166;4.760;2022-09-23T16:56:23;8.70;;;7.45;;
27383;SDS011;14851;51.166;4.760;2022-09-23T16:58:51;11.77;;;7.10;;
27383;SDS011;14851;51.166;4.760;2022-09-23T17:01:19;11.85;;;6.40;;
27383;SDS011;14851;51.166;4.760;2022-09-23T17:04:06;13.50;;;6.65;;
27383;SDS011;14851;51.166;4.760;2022-09-23T17:06:33;9.25;;;7.00;;
27383;SDS011;14851;51.166;4.760;2022-09-23T17:09:07;14.70;;;8.05;;
27383;SDS011;14851;51.166;4.760;2022-09-23T17:11:34;11.95;;;8.07;;
27383;SDS011;14851;51.166;4.760;2022-09-23T17:14:02;8.25;;;7.22;;
27383;SDS011;14851;51.166;4.760;2022-09-23T17:16:30;8.60;;;7.32;;
27383;SDS011;14851;51.166;4.760;2022-09-23T17:18:58;12.95;;;8.02;;
27383;SDS011;14851;51.166;4.760;2022-09-23T17:21:34;11.65;;;7.55;;
27383;SDS011;14851;51.166;4.760;2022-09-23T17:24:03;15.38;;;10.18;;
27383;SDS011;14851;51.166;4.760;2022-09-23T17:26:30;17.75;;;11.35;;
27383;SDS011;14851;51.166;4.760;2022-09-23T17:28:57;16.15;;;10.88;;
27383;SDS011;14851;51.166;4.760;2022-09-23T17:31:25;16.58;;;11.40;;
27383;SDS011;14851;51.166;4.760;2022-09-23T17:33:58;16.30;;;11.25;;
27383;SDS011;14851;51.166;4.760;2022-09-23T17:36:33;12.07;;;10.30;;
27383;SDS011;14851;51.166;4.760;2022-09-23T17:39:02;17.17;;;10.80;;
27383;SDS011;14851;51.166;4.760;2022-09-23T17:41:37;14.73;;;9.52;;
27383;SDS011;14851;51.166;4.760;2022-09-23T17:44:03;13.90;;;10.63;;
27383;SDS011;14851;51.166;4.760;2022-09-23T17:46:30;15.75;;;10.88;;
27383;SDS011;14851;51.166;4.760;2022-09-23T17:48:59;16.27;;;10.70;;
27383;SDS011;14851;51.166;4.760;2022-09-23T17:51:26;15.50;;;12.30;;
27383;SDS011;14851;51.166;4.760;2022-09-23T17:53:53;15.15;;;13.35;;
27383;SDS011;14851;51.166;4.760;2022-09-23T17:56:23;15.65;;;12.52;;
27383;SDS011;14851;51.166;4.760;2022-09-23T17:58:50;17.98;;;13.27;;
27383;SDS011;14851;51.166;4.760;2022-09-23T18:01:21;14.82;;;12.90;;
27383;SDS011;14851;51.166;4.760;2022-09-23T18:03:56;15.93;;;13.10;;
27383;SDS011;14851;51.166;4.760;2022-09-23T18:06:24;18.60;;;15.52;;
27383;SDS011;14851;51.166;4.760;2022-09-23T18:08:53;18.15;;;12.90;;
27383;SDS011;14851;51.166;4.760;2022-09-23T18:11:24;15.88;;;13.00;;